sensor_id;sensor_type;location;lat;lon;timestamp;pressure;altitude;pressure_sealevel;temperature;humidity
7335;BME280;3708;42.632;23.378;2024-02-15T00:01:00;94731.13;;;2.52;61.41
7335;BME280;3708;42.632;23.378;2024-02-15T00:03:25;94748.78;;;2.49;61.76
7335;BME280;3708;42.632;23.378;2024-02-15T00:05:51;94690.06;;;2.04;61.07
7335;BME280;3708;42.632;23.378;2024-02-15T00:08:18;94706.03;;;2.23;61.68
7335;BME280;3708;42.632;23.378;2024-02-15T00:10:44;94703.59;;;2.25;61.44
7335;BME280;3708;42.632;23.378;2024-02-15T00:13:14;94737.47;;;2.43;61.51
7335;BME280;3708;42.632;23.378;2024-02-15T00:15:40;94739.78;;;2.34;61.96
7335;BME280;3708;42.632;23.378;2024-02-15T00:18:08;94719.72;;;2.33;61.29
7335;BME280;3708;42.632;23.378;2024-02-15T00:20:33;94691.59;;;2.18;60.92
7335;BME280;3708;42.632;23.378;2024-02-15T00:22:59;94680.38;;;2.07;61.78
7335;BME280;3708;42.632;23.378;2024-02-15T00:25:26;94740.13;;;2.43;60.70
7335;BME280;3708;42.632;23.378;2024-02-15T00:27:51;94744.88;;;2.50;61.73
7335;BME280;3708;42.632;23.378;2024-02-15T00:30:17;94709.44;;;2.24;62.16
7335;BME280;3708;42.632;23.378;2024-02-15T00:32:43;94709.38;;;2.29;61.69
7335;BME280;3708;42.632;23.378;2024-02-15T00:35:10;94713.78;;;2.21;61.67
7335;BME280;3708;42.632;23.378;2024-02-15T00:37:36;94689.50;;;2.11;61.20
7335;BME280;3708;42.632;23.378;2024-02-15T00:40:01;94721.97;;;2.23;61.15
7335;BME280;3708;42.632;23.378;2024-02-15T00:42:29;94704.88;;;2.18;61.08
7335;BME280;3708;42.632;23.378;2024-02-15T00:44:57;94684.59;;;1.97;61.61
7335;BME280;3708;42.632;23.378;2024-02-15T00:47:22;94687.47;;;1.99;61.52
7335;BME280;3708;42.632;23.378;2024-02-15T00:49:48;94725.09;;;2.27;61.37
7335;BME280;3708;42.632;23.378;2024-02-15T00:52:16;94707.75;;;2.21;60.79
7335;BME280;3708;42.632;23.378;2024-02-15T00:54:43;94747.19;;;2.41;61.76
7335;BME280;3708;42.632;23.378;2024-02-15T00:57:08;94729.75;;;2.21;60.49
7335;BME280;3708;42.632;23.378;2024-02-15T00:59:35;94708.38;;;2.08;61.12
7335;BME280;3708;42.632;23.378;2024-02-15T01:02:01;94763.84;;;2.41;61.03
7335;BME280;3708;42.632;23.378;2024-02-15T01:04:28;94701.25;;;1.97;61.33
7335;BME280;3708;42.632;23.378;2024-02-15T01:06:54;94749.38;;;2.37;61.95
7335;BME280;3708;42.632;23.378;2024-02-15T01:09:21;94748.00;;;2.30;60.69
7335;BME280;3708;42.632;23.378;2024-02-15T01:11:47;94754.38;;;2.46;61.76
7335;BME280;3708;42.632;23.378;2024-02-15T01:14:13;94728.53;;;2.22;60.77
7335;BME280;3708;42.632;23.378;2024-02-15T01:16:39;94689.47;;;1.93;61.68
7335;BME280;3708;42.632;23.378;2024-02-15T01:19:04;94744.25;;;2.44;60.70
7335;BME280;3708;42.632;23.378;2024-02-15T01:21:31;94742.22;;;2.32;60.60
7335;BME280;3708;42.632;23.378;2024-02-15T01:23:59;94699.47;;;2.05;61.90
7335;BME280;3708;42.632;23.378;2024-02-15T01:26:26;94729.91;;;2.29;61.67
7335;BME280;3708;42.632;23.378;2024-02-15T01:28:52;94722.28;;;2.20;61.32
7335;BME280;3708;42.632;23.378;2024-02-15T01:31:18;94739.47;;;2.37;61.86
7335;BME280;3708;42.632;23.378;2024-02-15T01:33:44;94731.34;;;2.30;61.59
7335;BME280;3708;42.632;23.378;2024-02-15T01:36:15;94701.63;;;2.07;60.98
7335;BME280;3708;42.632;23.378;2024-02-15T01:38:44;94701.88;;;2.09;61.67
7335;BME280;3708;42.632;23.378;2024-02-15T01:41:10;94742.22;;;2.32;61.09
7335;BME280;3708;42.632;23.378;2024-02-15T01:43:36;94673.88;;;1.84;61.26
7335;BME280;3708;42.632;23.378;2024-02-15T01:46:09;94705.28;;;2.04;60.51
7335;BME280;3708;42.632;23.378;2024-02-15T01:48:40;94712.50;;;2.09;61.77
7335;BME280;3708;42.632;23.378;2024-02-15T01:51:10;94735.22;;;2.29;62.23
7335;BME280;3708;42.632;23.378;2024-02-15T01:53:37;94753.41;;;2.25;61.94
7335;BME280;3708;42.632;23.378;2024-02-15T01:56:03;94727.84;;;2.16;61.80
7335;BME280;3708;42.632;23.378;2024-02-15T01:58:29;94725.44;;;2.18;60.98
7335;BME280;3708;42.632;23.378;2024-02-15T02:00:58;94767.78;;;2.35;61.11
7335;BME280;3708;42.632;23.378;2024-02-15T02:03:25;94713.75;;;2.02;60.90
7335;BME280;3708;42.632;23.378;2024-02-15T02:05:50;94736.78;;;2.18;61.19
7335;BME280;3708;42.632;23.378;2024-02-15T02:08:16;94721.38;;;2.11;61.36
7335;BME280;3708;42.632;23.378;2024-02-15T02:10:41;94740.09;;;2.25;61.74
7335;BME280;3708;42.632;23.378;2024-02-15T02:13:08;94752.16;;;2.26;61.77
7335;BME280;3708;42.632;23.378;2024-02-15T02:15:35;94753.63;;;2.27;61.92
7335;BME280;3708;42.632;23.378;2024-02-15T02:18:03;94708.75;;;1.93;61.58
7335;BME280;3708;42.632;23.378;2024-02-15T02:20:31;94683.91;;;1.67;61.57
7335;BME280;3708;42.632;23.378;2024-02-15T02:23:17;94761.63;;;2.21;61.73
7335;BME280;3708;42.632;23.378;2024-02-15T02:25:48;94766.94;;;2.21;61.28
7335;BME280;3708;42.632;23.378;2024-02-15T02:28:14;94736.72;;;2.00;62.13
7335;BME280;3708;42.632;23.378;2024-02-15T02:30:41;94743.47;;;2.01;61.68
7335;BME280;3708;42.632;23.378;2024-02-15T02:33:13;94783.66;;;2.16;61.51
7335;BME280;3708;42.632;23.378;2024-02-15T02:35:45;94772.97;;;2.22;61.95
7335;BME280;3708;42.632;23.378;2024-02-15T02:38:12;94750.91;;;2.08;62.55
7335;BME280;3708;42.632;23.378;2024-02-15T02:40:38;94709.16;;;1.79;60.88
7335;BME280;3708;42.632;23.378;2024-02-15T02:43:03;94801.25;;;2.19;61.15
7335;BME280;3708;42.632;23.378;2024-02-15T02:45:29;94756.44;;;2.10;61.09
7335;BME280;3708;42.632;23.378;2024-02-15T02:47:55;94765.53;;;2.20;61.81
7335;BME280;3708;42.632;23.378;2024-02-15T02:50:21;94774.91;;;2.21;61.04
7335;BME280;3708;42.632;23.378;2024-02-15T02:52:48;94762.91;;;2.14;62.19
7335;BME280;3708;42.632;23.378;2024-02-15T02:55:14;94729.56;;;1.89;61.60
7335;BME280;3708;42.632;23.378;2024-02-15T02:57:39;94726.97;;;1.84;61.52
7335;BME280;3708;42.632;23.378;2024-02-15T03:00:07;94780.44;;;2.23;61.45
7335;BME280;3708;42.632;23.378;2024-02-15T03:02:42;94752.50;;;1.92;61.63
7335;BME280;3708;42.632;23.378;2024-02-15T03:05:08;94783.41;;;2.20;61.47
7335;BME280;3708;42.632;23.378;2024-02-15T03:07:38;94775.63;;;2.22;61.87
7335;BME280;3708;42.632;23.378;2024-02-15T03:10:06;94772.38;;;2.10;61.75
7335;BME280;3708;42.632;23.378;2024-02-15T03:12:38;94782.00;;;2.13;61.54
7335;BME280;3708;42.632;23.378;2024-02-15T03:15:05;94739.03;;;1.85;62.52
7335;BME280;3708;42.632;23.378;2024-02-15T03:17:37;94777.25;;;2.06;61.53
7335;BME280;3708;42.632;23.378;2024-02-15T03:20:06;94778.19;;;2.08;62.16
7335;BME280;3708;42.632;23.378;2024-02-15T03:22:56;94747.63;;;1.67;62.04
7335;BME280;3708;42.632;23.378;2024-02-15T03:25:22;94745.25;;;1.63;62.59
7335;BME280;3708;42.632;23.378;2024-02-15T03:27:55;94798.03;;;2.02;61.93
7335;BME280;3708;42.632;23.378;2024-02-15T03:30:22;94774.59;;;1.76;62.99
7335;BME280;3708;42.632;23.378;2024-02-15T03:32:49;94784.16;;;1.85;62.54
7335;BME280;3708;42.632;23.378;2024-02-15T03:35:17;94800.00;;;1.96;62.49
7335;BME280;3708;42.632;23.378;2024-02-15T03:37:43;94744.31;;;1.61;62.33
7335;BME280;3708;42.632;23.378;2024-02-15T03:40:09;94770.22;;;1.79;61.95
7335;BME280;3708;42.632;23.378;2024-02-15T03:42:35;94778.84;;;1.85;62.53
7335;BME280;3708;42.632;23.378;2024-02-15T03:45:05;94791.63;;;1.86;62.27
7335;BME280;3708;42.632;23.378;2024-02-15T03:47:35;94767.59;;;1.73;62.80
7335;BME280;3708;42.632;23.378;2024-02-15T03:50:04;94729.66;;;1.49;62.87
7335;BME280;3708;42.632;23.378;2024-02-15T03:52:31;94791.19;;;1.82;63.00
7335;BME280;3708;42.632;23.378;2024-02-15T03:54:57;94790.75;;;1.78;62.61
7335;BME280;3708;42.632;23.378;2024-02-15T03:57:24;94718.72;;;1.28;62.43
7335;BME280;3708;42.632;23.378;2024-02-15T03:59:49;94759.00;;;1.62;62.87
7335;BME280;3708;42.632;23.378;2024-02-15T04:02:20;94747.44;;;1.59;62.97
7335;BME280;3708;42.632;23.378;2024-02-15T04:04:46;94748.44;;;1.56;62.11
7335;BME280;3708;42.632;23.378;2024-02-15T04:07:15;94750.81;;;1.60;62.52
7335;BME280;3708;42.632;23.378;2024-02-15T04:09:42;94789.47;;;1.85;62.06
7335;BME280;3708;42.632;23.378;2024-02-15T04:12:08;94789.25;;;1.83;62.47
7335;BME280;3708;42.632;23.378;2024-02-15T04:14:33;94783.53;;;1.73;62.95
7335;BME280;3708;42.632;23.378;2024-02-15T04:17:00;94777.81;;;1.64;62.89
7335;BME280;3708;42.632;23.378;2024-02-15T04:19:27;94790.84;;;1.67;63.09
7335;BME280;3708;42.632;23.378;2024-02-15T04:21:53;94824.84;;;1.69;63.81
7335;BME280;3708;42.632;23.378;2024-02-15T04:24:21;94744.94;;;1.37;63.59
7335;BME280;3708;42.632;23.378;2024-02-15T04:26:47;94804.06;;;1.73;62.99
7335;BME280;3708;42.632;23.378;2024-02-15T04:29:16;94756.97;;;1.43;63.01
7335;BME280;3708;42.632;23.378;2024-02-15T04:31:43;94801.41;;;1.73;63.92
7335;BME280;3708;42.632;23.378;2024-02-15T04:34:08;94757.16;;;1.51;63.58
7335;BME280;3708;42.632;23.378;2024-02-15T04:36:35;94793.50;;;1.67;63.20
7335;BME280;3708;42.632;23.378;2024-02-15T04:39:01;94794.44;;;1.70;62.85
7335;BME280;3708;42.632;23.378;2024-02-15T04:41:30;94720.94;;;1.18;63.59
7335;BME280;3708;42.632;23.378;2024-02-15T04:43:55;94816.13;;;1.74;63.34
7335;BME280;3708;42.632;23.378;2024-02-15T04:46:21;94817.81;;;1.71;62.92
7335;BME280;3708;42.632;23.378;2024-02-15T04:48:48;94828.44;;;1.71;64.08
7335;BME280;3708;42.632;23.378;2024-02-15T04:51:17;94801.97;;;1.60;63.67
7335;BME280;3708;42.632;23.378;2024-02-15T04:53:43;94816.22;;;1.57;63.67
7335;BME280;3708;42.632;23.378;2024-02-15T04:56:11;94788.88;;;1.32;63.99
7335;BME280;3708;42.632;23.378;2024-02-15T04:58:39;94828.81;;;1.57;64.06
7335;BME280;3708;42.632;23.378;2024-02-15T05:01:16;94744.75;;;0.89;63.96
7335;BME280;3708;42.632;23.378;2024-02-15T05:03:45;94764.63;;;1.12;64.53
7335;BME280;3708;42.632;23.378;2024-02-15T05:06:12;94793.31;;;1.19;63.72
7335;BME280;3708;42.632;23.378;2024-02-15T05:08:40;94807.47;;;1.32;63.66
7335;BME280;3708;42.632;23.378;2024-02-15T05:11:10;94835.31;;;1.56;64.17
7335;BME280;3708;42.632;23.378;2024-02-15T05:13:46;94773.56;;;1.14;63.92
7335;BME280;3708;42.632;23.378;2024-02-15T05:16:14;94844.03;;;1.51;64.51
7335;BME280;3708;42.632;23.378;2024-02-15T05:18:41;94841.94;;;1.38;64.34
7335;BME280;3708;42.632;23.378;2024-02-15T05:21:07;94830.09;;;1.39;64.86
7335;BME280;3708;42.632;23.378;2024-02-15T05:23:36;94794.03;;;1.14;64.71
7335;BME280;3708;42.632;23.378;2024-02-15T05:26:09;94836.34;;;1.47;64.62
7335;BME280;3708;42.632;23.378;2024-02-15T05:28:34;94844.06;;;1.45;64.46
7335;BME280;3708;42.632;23.378;2024-02-15T05:31:14;94825.81;;;1.30;64.28
7335;BME280;3708;42.632;23.378;2024-02-15T05:33:43;94817.16;;;1.24;64.91
7335;BME280;3708;42.632;23.378;2024-02-15T05:36:12;94851.25;;;1.50;64.00
7335;BME280;3708;42.632;23.378;2024-02-15T05:38:39;94773.19;;;0.94;64.12
7335;BME280;3708;42.632;23.378;2024-02-15T05:41:05;94861.19;;;1.50;64.50
7335;BME280;3708;42.632;23.378;2024-02-15T05:43:36;94869.84;;;1.50;64.14
7335;BME280;3708;42.632;23.378;2024-02-15T05:46:02;94855.38;;;1.51;64.20
7335;BME280;3708;42.632;23.378;2024-02-15T05:48:28;94884.09;;;1.47;64.02
7335;BME280;3708;42.632;23.378;2024-02-15T05:50:56;94856.34;;;1.48;64.98
7335;BME280;3708;42.632;23.378;2024-02-15T05:53:23;94860.44;;;1.49;63.85
7335;BME280;3708;42.632;23.378;2024-02-15T05:55:49;94834.50;;;1.31;64.49
7335;BME280;3708;42.632;23.378;2024-02-15T05:58:16;94826.81;;;1.22;64.06
7335;BME280;3708;42.632;23.378;2024-02-15T06:00:42;94842.41;;;1.36;64.55
7335;BME280;3708;42.632;23.378;2024-02-15T06:03:18;94857.63;;;1.36;63.89
7335;BME280;3708;42.632;23.378;2024-02-15T06:05:44;94818.69;;;1.09;64.35
7335;BME280;3708;42.632;23.378;2024-02-15T06:08:13;94829.03;;;1.12;63.66
7335;BME280;3708;42.632;23.378;2024-02-15T06:10:39;94838.41;;;1.19;64.18
7335;BME280;3708;42.632;23.378;2024-02-15T06:13:05;94853.53;;;1.35;63.32
7335;BME280;3708;42.632;23.378;2024-02-15T06:15:31;94904.81;;;1.54;63.72
7335;BME280;3708;42.632;23.378;2024-02-15T06:17:57;94877.41;;;1.35;64.45
7335;BME280;3708;42.632;23.378;2024-02-15T06:20:25;94901.47;;;1.48;64.58
7335;BME280;3708;42.632;23.378;2024-02-15T06:22:54;94896.88;;;1.49;64.56
7335;BME280;3708;42.632;23.378;2024-02-15T06:25:20;94875.81;;;1.15;63.93
7335;BME280;3708;42.632;23.378;2024-02-15T06:27:46;94861.81;;;1.20;64.05
7335;BME280;3708;42.632;23.378;2024-02-15T06:30:14;94870.00;;;1.17;64.30
7335;BME280;3708;42.632;23.378;2024-02-15T06:32:58;94890.91;;;1.37;64.45
7335;BME280;3708;42.632;23.378;2024-02-15T06:35:42;94875.78;;;1.21;63.93
7335;BME280;3708;42.632;23.378;2024-02-15T06:38:27;94863.22;;;1.21;64.09
7335;BME280;3708;42.632;23.378;2024-02-15T06:41:12;94914.94;;;1.61;64.01
7335;BME280;3708;42.632;23.378;2024-02-15T06:43:37;94905.06;;;1.56;64.20
7335;BME280;3708;42.632;23.378;2024-02-15T06:46:08;94859.91;;;1.15;64.19
7335;BME280;3708;42.632;23.378;2024-02-15T06:48:34;94920.25;;;1.56;64.45
7335;BME280;3708;42.632;23.378;2024-02-15T06:51:00;94868.81;;;1.18;64.18
7335;BME280;3708;42.632;23.378;2024-02-15T06:53:26;94885.44;;;1.18;64.13
7335;BME280;3708;42.632;23.378;2024-02-15T06:55:51;94856.97;;;1.19;64.47
7335;BME280;3708;42.632;23.378;2024-02-15T06:58:17;94873.06;;;1.32;63.82
7335;BME280;3708;42.632;23.378;2024-02-15T07:00:43;94873.78;;;1.32;63.99
7335;BME280;3708;42.632;23.378;2024-02-15T07:03:09;94893.31;;;1.40;64.45
7335;BME280;3708;42.632;23.378;2024-02-15T07:05:36;94909.88;;;1.58;64.71
7335;BME280;3708;42.632;23.378;2024-02-15T07:08:04;94866.50;;;1.44;63.84
7335;BME280;3708;42.632;23.378;2024-02-15T07:10:30;94898.72;;;1.65;64.44
7335;BME280;3708;42.632;23.378;2024-02-15T07:12:57;94835.81;;;1.08;63.53
7335;BME280;3708;42.632;23.378;2024-02-15T07:15:30;94901.88;;;1.63;64.27
7335;BME280;3708;42.632;23.378;2024-02-15T07:17:58;94926.03;;;1.60;63.67
7335;BME280;3708;42.632;23.378;2024-02-15T07:20:24;94847.81;;;1.20;63.83
7335;BME280;3708;42.632;23.378;2024-02-15T07:22:51;94875.72;;;1.37;63.64
7335;BME280;3708;42.632;23.378;2024-02-15T07:25:17;94847.53;;;1.29;63.51
7335;BME280;3708;42.632;23.378;2024-02-15T07:27:43;94896.38;;;1.56;63.69
7335;BME280;3708;42.632;23.378;2024-02-15T07:30:09;94862.88;;;1.47;62.84
7335;BME280;3708;42.632;23.378;2024-02-15T07:35:09;94854.94;;;1.41;62.18
7335;BME280;3708;42.632;23.378;2024-02-15T07:37:35;94900.88;;;2.07;61.33
7335;BME280;3708;42.632;23.378;2024-02-15T07:40:00;94907.34;;;2.11;61.34
7335;BME280;3708;42.632;23.378;2024-02-15T07:42:29;94835.81;;;1.54;61.06
7335;BME280;3708;42.632;23.378;2024-02-15T07:44:54;94889.00;;;2.13;60.35
7335;BME280;3708;42.632;23.378;2024-02-15T07:47:20;94869.16;;;1.85;60.55
7335;BME280;3708;42.632;23.378;2024-02-15T07:49:52;94879.09;;;2.14;61.48
7335;BME280;3708;42.632;23.378;2024-02-15T07:52:17;94877.28;;;2.28;59.93
7335;BME280;3708;42.632;23.378;2024-02-15T07:54:44;94896.25;;;2.43;60.68
7335;BME280;3708;42.632;23.378;2024-02-15T07:57:09;94882.44;;;2.50;59.67
7335;BME280;3708;42.632;23.378;2024-02-15T07:59:36;94877.78;;;2.56;59.28
7335;BME280;3708;42.632;23.378;2024-02-15T08:02:01;94814.28;;;2.23;60.18
7335;BME280;3708;42.632;23.378;2024-02-15T08:04:27;94894.22;;;2.54;59.45
7335;BME280;3708;42.632;23.378;2024-02-15T08:06:54;94840.78;;;2.34;59.43
7335;BME280;3708;42.632;23.378;2024-02-15T08:09:21;94851.84;;;2.62;58.89
7335;BME280;3708;42.632;23.378;2024-02-15T08:11:49;94887.47;;;2.77;59.94
7335;BME280;3708;42.632;23.378;2024-02-15T08:14:15;94884.66;;;2.94;58.77
7335;BME280;3708;42.632;23.378;2024-02-15T08:16:41;94889.91;;;3.00;58.62
7335;BME280;3708;42.632;23.378;2024-02-15T08:19:07;94864.75;;;3.01;58.32
7335;BME280;3708;42.632;23.378;2024-02-15T08:21:33;94826.16;;;2.70;57.86
7335;BME280;3708;42.632;23.378;2024-02-15T08:24:02;94890.31;;;3.28;57.28
7335;BME280;3708;42.632;23.378;2024-02-15T08:26:38;94891.28;;;3.49;57.76
7335;BME280;3708;42.632;23.378;2024-02-15T08:29:04;94884.78;;;3.44;57.25
7335;BME280;3708;42.632;23.378;2024-02-15T08:31:31;94784.94;;;2.58;57.37
7335;BME280;3708;42.632;23.378;2024-02-15T08:33:58;94875.22;;;3.36;58.36
7335;BME280;3708;42.632;23.378;2024-02-15T08:36:23;94837.72;;;3.15;57.61
7335;BME280;3708;42.632;23.378;2024-02-15T08:38:50;94880.69;;;3.62;56.31
7335;BME280;3708;42.632;23.378;2024-02-15T08:41:16;94865.59;;;3.51;57.16
7335;BME280;3708;42.632;23.378;2024-02-15T08:43:44;94882.72;;;3.56;56.45
7335;BME280;3708;42.632;23.378;2024-02-15T08:46:09;94829.41;;;3.43;56.83
7335;BME280;3708;42.632;23.378;2024-02-15T08:48:38;94873.47;;;3.94;56.69
7335;BME280;3708;42.632;23.378;2024-02-15T08:51:04;94886.38;;;3.72;55.75
7335;BME280;3708;42.632;23.378;2024-02-15T08:53:31;94888.25;;;3.77;56.02
7335;BME280;3708;42.632;23.378;2024-02-15T08:55:57;94860.09;;;3.63;55.69
7335;BME280;3708;42.632;23.378;2024-02-15T08:58:23;94871.97;;;3.61;57.06
7335;BME280;3708;42.632;23.378;2024-02-15T09:00:48;94874.94;;;3.58;56.45
7335;BME280;3708;42.632;23.378;2024-02-15T09:03:14;94851.69;;;3.58;56.98
7335;BME280;3708;42.632;23.378;2024-02-15T09:05:40;94858.66;;;3.80;55.82
7335;BME280;3708;42.632;23.378;2024-02-15T09:08:06;94881.72;;;3.91;57.15
7335;BME280;3708;42.632;23.378;2024-02-15T09:10:32;94872.13;;;4.19;55.28
7335;BME280;3708;42.632;23.378;2024-02-15T09:12:58;94874.44;;;4.42;55.10
7335;BME280;3708;42.632;23.378;2024-02-15T09:15:24;94832.91;;;4.01;55.12
7335;BME280;3708;42.632;23.378;2024-02-15T09:17:50;94859.00;;;3.90;56.44
7335;BME280;3708;42.632;23.378;2024-02-15T09:20:17;94848.72;;;3.81;56.96
7335;BME280;3708;42.632;23.378;2024-02-15T09:22:51;94870.63;;;4.37;55.22
7335;BME280;3708;42.632;23.378;2024-02-15T09:25:20;94856.53;;;4.23;55.14
7335;BME280;3708;42.632;23.378;2024-02-15T09:28:04;94861.00;;;4.47;54.69
7335;BME280;3708;42.632;23.378;2024-02-15T09:30:30;94798.50;;;3.85;56.35
7335;BME280;3708;42.632;23.378;2024-02-15T09:32:57;94805.81;;;4.42;54.69
7335;BME280;3708;42.632;23.378;2024-02-15T09:35:23;94852.13;;;4.26;54.98
7335;BME280;3708;42.632;23.378;2024-02-15T09:37:49;94828.41;;;4.09;54.80
7335;BME280;3708;42.632;23.378;2024-02-15T09:40:15;94848.56;;;4.37;55.87
7335;BME280;3708;42.632;23.378;2024-02-15T09:42:42;94824.34;;;4.21;54.74
7335;BME280;3708;42.632;23.378;2024-02-15T09:45:11;94766.50;;;3.72;54.32
7335;BME280;3708;42.632;23.378;2024-02-15T09:47:40;94856.81;;;4.52;54.14
7335;BME280;3708;42.632;23.378;2024-02-15T09:50:13;94803.53;;;4.33;53.56
7335;BME280;3708;42.632;23.378;2024-02-15T09:52:40;94817.28;;;4.50;53.29
7335;BME280;3708;42.632;23.378;2024-02-15T09:55:09;94865.03;;;4.93;53.42
7335;BME280;3708;42.632;23.378;2024-02-15T09:57:39;94861.94;;;5.02;51.47
7335;BME280;3708;42.632;23.378;2024-02-15T10:00:05;94847.88;;;4.88;53.00
7335;BME280;3708;42.632;23.378;2024-02-15T10:02:40;94840.28;;;5.19;51.79
7335;BME280;3708;42.632;23.378;2024-02-15T10:05:06;94805.59;;;5.05;51.95
7335;BME280;3708;42.632;23.378;2024-02-15T10:07:38;94833.41;;;5.10;52.72
7335;BME280;3708;42.632;23.378;2024-02-15T10:12:44;94843.59;;;5.58;51.17
7335;BME280;3708;42.632;23.378;2024-02-15T10:15:10;94828.13;;;5.44;51.85
7335;BME280;3708;42.632;23.378;2024-02-15T10:17:35;94788.97;;;5.46;51.40
7335;BME280;3708;42.632;23.378;2024-02-15T10:20:06;94778.97;;;5.81;50.37
7335;BME280;3708;42.632;23.378;2024-02-15T10:22:32;94783.28;;;5.84;50.07
7335;BME280;3708;42.632;23.378;2024-02-15T10:25:14;94827.72;;;5.73;50.58
7335;BME280;3708;42.632;23.378;2024-02-15T10:27:41;94820.88;;;5.65;51.11
7335;BME280;3708;42.632;23.378;2024-02-15T10:30:20;94815.53;;;5.65;50.83
7335;BME280;3708;42.632;23.378;2024-02-15T10:32:46;94756.38;;;5.14;51.63
7335;BME280;3708;42.632;23.378;2024-02-15T10:35:22;94785.75;;;6.02;48.95
7335;BME280;3708;42.632;23.378;2024-02-15T10:37:49;94784.69;;;6.46;49.23
7335;BME280;3708;42.632;23.378;2024-02-15T10:40:24;94717.00;;;6.31;48.45
7335;BME280;3708;42.632;23.378;2024-02-15T10:42:51;94751.31;;;6.19;48.91
7335;BME280;3708;42.632;23.378;2024-02-15T10:45:17;94796.13;;;6.26;50.02
7335;BME280;3708;42.632;23.378;2024-02-15T10:47:46;94758.06;;;5.92;49.04
7335;BME280;3708;42.632;23.378;2024-02-15T10:50:15;94724.97;;;6.52;47.60
7335;BME280;3708;42.632;23.378;2024-02-15T10:52:51;94785.16;;;7.45;45.82
7335;BME280;3708;42.632;23.378;2024-02-15T10:55:28;94777.94;;;6.81;48.17
7335;BME280;3708;42.632;23.378;2024-02-15T10:58:01;94776.56;;;6.31;47.50
7335;BME280;3708;42.632;23.378;2024-02-15T11:00:33;94791.41;;;6.68;48.53
7335;BME280;3708;42.632;23.378;2024-02-15T11:03:03;94787.53;;;6.77;48.07
7335;BME280;3708;42.632;23.378;2024-02-15T11:05:33;94757.56;;;6.50;48.07
7335;BME280;3708;42.632;23.378;2024-02-15T11:08:06;94786.59;;;7.02;47.53
7335;BME280;3708;42.632;23.378;2024-02-15T11:10:34;94700.75;;;6.65;47.73
7335;BME280;3708;42.632;23.378;2024-02-15T11:13:01;94696.69;;;6.35;48.24
7335;BME280;3708;42.632;23.378;2024-02-15T11:15:44;94731.16;;;6.82;48.02
7335;BME280;3708;42.632;23.378;2024-02-15T11:18:49;94771.34;;;7.33;47.53
7335;BME280;3708;42.632;23.378;2024-02-15T11:21:17;94729.06;;;6.96;47.38
7335;BME280;3708;42.632;23.378;2024-02-15T11:23:43;94653.88;;;6.35;46.65
7335;BME280;3708;42.632;23.378;2024-02-15T11:26:48;94713.09;;;6.75;48.02
7335;BME280;3708;42.632;23.378;2024-02-15T11:32:39;94773.25;;;7.83;45.40
7335;BME280;3708;42.632;23.378;2024-02-15T11:35:06;94767.34;;;7.85;46.18
7335;BME280;3708;42.632;23.378;2024-02-15T11:40:59;94769.31;;;7.69;46.89
7335;BME280;3708;42.632;23.378;2024-02-15T11:43:02;94657.38;;;7.32;46.18
7335;BME280;3708;42.632;23.378;2024-02-15T11:45:30;94662.75;;;7.55;45.55
7335;BME280;3708;42.632;23.378;2024-02-15T11:48:02;94766.59;;;8.83;43.97
7335;BME280;3708;42.632;23.378;2024-02-15T11:50:28;94686.72;;;7.90;44.44
7335;BME280;3708;42.632;23.378;2024-02-15T11:53:04;94765.41;;;8.53;43.49
7335;BME280;3708;42.632;23.378;2024-02-15T11:55:36;94759.00;;;8.26;45.52
7335;BME280;3708;42.632;23.378;2024-02-15T11:58:04;94689.56;;;8.08;44.38
7335;BME280;3708;42.632;23.378;2024-02-15T12:00:31;94666.47;;;8.35;42.68
7335;BME280;3708;42.632;23.378;2024-02-15T12:03:16;94750.00;;;9.09;42.85
7335;BME280;3708;42.632;23.378;2024-02-15T12:06:00;94715.59;;;9.15;41.41
7335;BME280;3708;42.632;23.378;2024-02-15T12:08:48;94742.59;;;9.24;40.76
7335;BME280;3708;42.632;23.378;2024-02-15T12:11:32;94743.88;;;9.23;42.47
7335;BME280;3708;42.632;23.378;2024-02-15T12:17:39;94723.94;;;8.87;42.96
7335;BME280;3708;42.632;23.378;2024-02-15T12:20:23;94712.13;;;9.29;41.52
7335;BME280;3708;42.632;23.378;2024-02-15T12:22:51;94743.50;;;10.08;40.35
7335;BME280;3708;42.632;23.378;2024-02-15T12:25:18;94671.31;;;9.23;41.44
7335;BME280;3708;42.632;23.378;2024-02-15T12:27:52;94734.19;;;10.34;40.44
7335;BME280;3708;42.632;23.378;2024-02-15T12:30:19;94736.72;;;9.18;42.08
7335;BME280;3708;42.632;23.378;2024-02-15T12:32:51;94689.63;;;9.17;41.86
7335;BME280;3708;42.632;23.378;2024-02-15T12:35:19;94725.91;;;9.33;41.95
7335;BME280;3708;42.632;23.378;2024-02-15T12:40:38;94724.91;;;10.03;40.04
7335;BME280;3708;42.632;23.378;2024-02-15T12:43:07;94700.59;;;9.93;40.63
7335;BME280;3708;42.632;23.378;2024-02-15T12:45:40;94727.06;;;10.98;39.10
7335;BME280;3708;42.632;23.378;2024-02-15T12:48:07;94728.00;;;11.10;38.54
7335;BME280;3708;42.632;23.378;2024-02-15T12:50:34;94689.19;;;11.22;37.93
7335;BME280;3708;42.632;23.378;2024-02-15T12:53:00;94701.78;;;11.37;37.25
7335;BME280;3708;42.632;23.378;2024-02-15T12:55:32;94593.78;;;10.21;38.46
7335;BME280;3708;42.632;23.378;2024-02-15T12:58:05;94634.72;;;10.19;38.82
7335;BME280;3708;42.632;23.378;2024-02-15T13:00:34;94586.06;;;10.00;37.85
7335;BME280;3708;42.632;23.378;2024-02-15T13:03:06;94589.13;;;9.79;38.62
7335;BME280;3708;42.632;23.378;2024-02-15T13:05:36;94695.22;;;10.35;38.55
7335;BME280;3708;42.632;23.378;2024-02-15T13:08:02;94589.78;;;9.21;40.42
7335;BME280;3708;42.632;23.378;2024-02-15T13:10:31;94607.28;;;9.79;39.75
7335;BME280;3708;42.632;23.378;2024-02-15T13:13:00;94629.88;;;9.76;39.94
7335;BME280;3708;42.632;23.378;2024-02-15T13:15:25;94669.88;;;10.21;38.92
7335;BME280;3708;42.632;23.378;2024-02-15T13:17:58;94697.91;;;11.04;38.54
7335;BME280;3708;42.632;23.378;2024-02-15T13:20:30;94721.06;;;10.90;37.89
7335;BME280;3708;42.632;23.378;2024-02-15T13:23:01;94589.69;;;9.61;39.06
7335;BME280;3708;42.632;23.378;2024-02-15T13:25:31;94645.94;;;10.77;36.90
7335;BME280;3708;42.632;23.378;2024-02-15T13:27:57;94670.72;;;11.45;36.39
7335;BME280;3708;42.632;23.378;2024-02-15T13:30:23;94636.16;;;10.37;38.54
7335;BME280;3708;42.632;23.378;2024-02-15T13:32:53;94712.16;;;10.45;39.54
7335;BME280;3708;42.632;23.378;2024-02-15T13:35:20;94677.81;;;10.53;38.14
7335;BME280;3708;42.632;23.378;2024-02-15T13:37:52;94646.72;;;11.13;36.68
7335;BME280;3708;42.632;23.378;2024-02-15T13:40:19;94689.38;;;11.51;37.66
7335;BME280;3708;42.632;23.378;2024-02-15T13:42:49;94709.00;;;10.91;38.91
7335;BME280;3708;42.632;23.378;2024-02-15T13:45:39;94707.59;;;10.55;39.73
7335;BME280;3708;42.632;23.378;2024-02-15T13:48:06;94652.66;;;9.50;40.78